createdAt,value
2023-06-17T00:01:52.298Z,1.00
2023-06-17T00:04:19.733Z,1.00
2023-06-17T00:06:47.274Z,1.00
2023-06-17T00:09:14.879Z,1.00
2023-06-17T00:11:42.494Z,1.00
2023-06-17T00:14:09.949Z,1.00
2023-06-17T00:16:38.112Z,1.00
2023-06-17T00:19:05.727Z,1.00
2023-06-17T00:21:33.156Z,1.00
2023-06-17T00:24:00.783Z,1.00
2023-06-17T00:26:28.265Z,1.00
2023-06-17T00:28:55.689Z,1.00
2023-06-17T00:31:23.076Z,99.90
2023-06-17T00:33:50.639Z,99.90
2023-06-17T00:36:18.192Z,99.90
2023-06-17T00:38:45.705Z,99.90
2023-06-17T00:41:13.277Z,99.90
2023-06-17T00:43:40.674Z,99.90
2023-06-17T00:46:08.459Z,1.00
2023-06-17T00:48:35.895Z,1.00
2023-06-17T00:51:03.528Z,1.00
2023-06-17T00:53:32.260Z,1.00
2023-06-17T00:56:00.144Z,1.00
2023-06-17T00:58:27.794Z,1.00
2023-06-17T01:00:55.355Z,1.00
2023-06-17T01:03:24.119Z,1.00
2023-06-17T01:05:57.299Z,1.00
2023-06-17T01:08:46.294Z,1.00
2023-06-17T01:11:15.663Z,1.00
2023-06-17T01:13:44.350Z,99.90
2023-06-17T01:16:12.812Z,1.00
2023-06-17T01:18:41.853Z,1.00
2023-06-17T01:21:09.628Z,99.90
2023-06-17T01:23:39.316Z,99.90
2023-06-17T01:26:08.363Z,1.00
2023-06-17T01:28:39.413Z,1.00
2023-06-17T01:31:09.249Z,1.00
2023-06-17T01:33:39.475Z,99.90
2023-06-17T01:36:21.022Z,99.90
2023-06-17T01:38:52.983Z,1.00
2023-06-17T01:41:35.041Z,1.00
2023-06-17T01:44:04.537Z,99.90
2023-06-17T01:46:32.231Z,18.10
2023-06-17T01:49:00.111Z,1.00
2023-06-17T01:51:28.038Z,1.00
2023-06-17T01:53:55.448Z,1.00
2023-06-17T01:56:23.054Z,26.30
2023-06-17T01:58:50.501Z,1.00
2023-06-17T02:01:17.916Z,1.00
2023-06-17T02:03:45.996Z,99.90
2023-06-17T02:06:13.483Z,99.90
2023-06-17T02:08:41.747Z,1.00
2023-06-17T02:11:09.214Z,1.00
2023-06-17T02:13:36.636Z,1.00
2023-06-17T02:16:04.240Z,99.90
2023-06-17T02:18:33.519Z,52.80
2023-06-17T02:21:01.704Z,1.00
2023-06-17T02:23:29.260Z,1.00
2023-06-17T02:25:57.762Z,1.00
2023-06-17T02:28:25.605Z,99.90
2023-06-17T02:30:53.009Z,99.90
2023-06-17T02:33:20.570Z,1.00
2023-06-17T02:35:48.012Z,5.70
2023-06-17T02:38:16.280Z,1.00
2023-06-17T02:40:43.723Z,99.90
2023-06-17T02:43:11.101Z,99.90
2023-06-17T02:45:38.539Z,99.90
2023-06-17T02:48:06.340Z,99.20
2023-06-17T02:50:33.859Z,1.00
2023-06-17T02:53:01.591Z,99.90
2023-06-17T02:55:29.202Z,9.30
2023-06-17T02:57:56.573Z,99.90
2023-06-17T03:00:24.205Z,1.00
2023-06-17T03:02:52.033Z,1.00
2023-06-17T03:05:19.700Z,99.90
2023-06-17T03:07:47.914Z,99.90
2023-06-17T03:10:16.741Z,1.00
2023-06-17T03:12:44.177Z,99.90
2023-06-17T03:15:11.662Z,1.00
2023-06-17T03:17:39.121Z,98.20
2023-06-17T03:20:09.614Z,99.90
2023-06-17T03:22:37.157Z,1.00
2023-06-17T03:25:05.168Z,99.90
2023-06-17T03:27:32.735Z,1.00
2023-06-17T03:30:00.297Z,1.00
2023-06-17T03:32:27.740Z,72.20
2023-06-17T03:34:55.217Z,99.90
2023-06-17T03:37:23.070Z,99.90
2023-06-17T03:39:50.545Z,1.00
2023-06-17T03:42:18.347Z,1.00
2023-06-17T03:44:45.926Z,99.90
2023-06-17T03:47:13.462Z,1.00
2023-06-17T03:49:40.875Z,99.90
2023-06-17T03:52:08.457Z,1.00
2023-06-17T03:54:35.825Z,99.90
2023-06-17T03:57:03.405Z,99.90
2023-06-17T03:59:30.872Z,99.90
2023-06-17T04:02:00.050Z,99.90
2023-06-17T04:04:29.876Z,1.00
2023-06-17T04:06:57.483Z,1.00
2023-06-17T04:09:24.907Z,1.00
2023-06-17T04:11:52.391Z,1.00
2023-06-17T04:14:19.841Z,80.00
2023-06-17T04:16:47.351Z,99.90
2023-06-17T04:19:18.553Z,99.90
2023-06-17T04:21:46.106Z,99.90
2023-06-17T04:24:13.555Z,99.90
2023-06-17T04:26:41.385Z,99.90
2023-06-17T04:29:09.657Z,99.90
2023-06-17T04:31:41.209Z,90.60
2023-06-17T04:34:08.985Z,99.90
2023-06-17T04:36:36.791Z,99.90
2023-06-17T04:39:05.740Z,22.10
2023-06-17T04:41:33.903Z,99.90
2023-06-17T04:44:02.372Z,99.90
2023-06-17T04:46:29.980Z,99.90
2023-06-17T04:48:57.988Z,99.90
2023-06-17T04:51:25.706Z,1.00
2023-06-17T04:53:53.164Z,99.90
2023-06-17T04:56:21.060Z,99.90
2023-06-17T04:58:48.689Z,66.00
2023-06-17T05:01:16.301Z,1.00
2023-06-17T05:03:43.802Z,1.00
2023-06-17T05:06:11.653Z,1.00
2023-06-17T05:08:39.169Z,1.00
2023-06-17T05:11:06.574Z,99.90
2023-06-17T05:13:34.078Z,99.90
2023-06-17T05:16:01.517Z,99.90
2023-06-17T05:18:28.890Z,99.90
2023-06-17T05:20:56.483Z,99.90
2023-06-17T05:23:23.915Z,99.90
2023-06-17T05:25:51.285Z,1.00
2023-06-17T05:28:19.490Z,99.90
2023-06-17T05:30:46.899Z,99.90
2023-06-17T05:33:14.527Z,99.90
2023-06-17T05:35:41.913Z,42.90
2023-06-17T05:38:09.423Z,90.90
2023-06-17T05:40:36.852Z,1.00
2023-06-17T05:43:04.304Z,1.00
2023-06-17T05:45:31.654Z,1.00
2023-06-17T05:48:02.041Z,1.00
2023-06-17T05:50:29.507Z,99.90
2023-06-17T05:52:56.909Z,1.00
2023-06-17T05:55:24.394Z,1.00
2023-06-17T05:57:53.196Z,1.00
2023-06-17T06:00:21.384Z,1.00
2023-06-17T06:02:50.759Z,99.90
2023-06-17T06:05:18.345Z,99.90
2023-06-17T06:07:45.839Z,99.90
2023-06-17T06:10:13.385Z,99.90
2023-06-17T06:12:43.615Z,1.00
2023-06-17T06:15:11.128Z,1.00
2023-06-17T06:17:38.627Z,1.00
2023-06-17T06:20:06.521Z,1.00
2023-06-17T06:22:34.042Z,1.00
2023-06-17T06:25:01.433Z,1.00
2023-06-17T06:27:28.864Z,99.90
2023-06-17T06:29:56.291Z,99.90
2023-06-17T06:32:23.765Z,99.90
2023-06-17T06:34:51.472Z,99.90
2023-06-17T06:37:18.844Z,99.90
2023-06-17T06:39:46.278Z,4.80
2023-06-17T06:42:13.829Z,1.00
2023-06-17T06:44:41.243Z,1.00
2023-06-17T06:47:08.692Z,1.00
2023-06-17T06:49:36.141Z,1.00
2023-06-17T06:52:03.797Z,1.00
2023-06-17T06:54:31.153Z,1.00
2023-06-17T06:56:58.886Z,1.00
2023-06-17T06:59:26.313Z,1.00
2023-06-17T07:01:53.787Z,1.00
2023-06-17T07:04:24.151Z,99.90
2023-06-17T07:06:51.615Z,99.90
2023-06-17T07:09:19.139Z,99.90
2023-06-17T07:11:46.601Z,99.90
2023-06-17T07:14:14.440Z,99.90
2023-06-17T07:16:41.911Z,99.90
2023-06-17T07:19:09.385Z,99.90
2023-06-17T07:21:36.821Z,99.90
2023-06-17T07:24:04.503Z,97.80
2023-06-17T07:26:31.914Z,50.20
2023-06-17T07:29:02.028Z,1.00
2023-06-17T07:31:32.492Z,1.00
2023-06-17T07:34:00.415Z,1.00
2023-06-17T07:36:28.034Z,1.00
2023-06-17T07:38:55.808Z,1.00
2023-06-17T07:41:23.244Z,1.00
2023-06-17T07:43:50.700Z,1.00
2023-06-17T07:46:18.236Z,1.00
2023-06-17T07:48:45.768Z,1.00
2023-06-17T07:51:13.313Z,1.00
2023-06-17T07:53:40.866Z,1.00
2023-06-17T07:56:09.456Z,1.00
2023-06-17T07:58:37.014Z,1.00
2023-06-17T08:01:04.434Z,1.00
2023-06-17T08:03:32.014Z,1.00
2023-06-17T08:06:00.507Z,1.00
2023-06-17T08:08:28.291Z,1.00
2023-06-17T08:10:55.798Z,1.00
2023-06-17T08:13:23.223Z,1.00
2023-06-17T08:15:52.826Z,1.00
2023-06-17T08:18:20.383Z,1.00
2023-06-17T08:20:48.125Z,1.00
2023-06-17T08:23:15.669Z,1.00
2023-06-17T08:25:43.190Z,1.00
2023-06-17T08:28:10.967Z,1.00
2023-06-17T08:30:38.420Z,1.00
2023-06-17T08:33:05.925Z,99.90
2023-06-17T08:35:33.326Z,99.90
2023-06-17T08:38:00.804Z,99.90
2023-06-17T08:40:30.210Z,99.90
2023-06-17T08:43:04.022Z,99.90
2023-06-17T08:45:31.937Z,99.90
2023-06-17T08:47:59.687Z,99.90
2023-06-17T08:50:29.438Z,99.90
2023-06-17T08:52:57.593Z,99.90
2023-06-17T08:55:25.200Z,99.90
2023-06-17T08:57:52.639Z,99.90
2023-06-17T09:00:20.814Z,99.90
2023-06-17T09:02:50.778Z,99.90
2023-06-17T09:05:18.390Z,99.90
2023-06-17T09:07:45.827Z,99.90
2023-06-17T09:10:16.462Z,99.90
2023-06-17T09:12:43.828Z,99.90
2023-06-17T09:15:18.482Z,99.90
2023-06-17T09:17:46.721Z,99.90
2023-06-17T09:20:16.449Z,99.90
2023-06-17T09:22:45.744Z,99.90
2023-06-17T09:25:15.403Z,99.90
2023-06-17T09:30:24.604Z,93.40
2023-06-17T09:32:53.615Z,82.90
2023-06-17T09:35:21.234Z,75.30
2023-06-17T09:38:03.452Z,69.70
2023-06-17T09:40:35.271Z,71.40
2023-06-17T09:43:25.145Z,68.20
2023-06-17T09:45:55.976Z,65.20
2023-06-17T09:48:26.076Z,62.90
2023-06-17T09:50:58.521Z,61.50
2023-06-17T09:53:31.596Z,60.20
2023-06-17T09:56:01.096Z,55.40
2023-06-17T09:58:31.479Z,53.10
2023-06-17T10:01:01.681Z,53.60
2023-06-17T10:03:29.512Z,55.00
2023-06-17T10:06:08.090Z,51.80
2023-06-17T10:08:41.424Z,49.20
2023-06-17T10:11:08.886Z,46.60
2023-06-17T10:13:38.103Z,42.60
2023-06-17T10:16:10.615Z,39.20
2023-06-17T10:18:41.415Z,36.90
2023-06-17T10:21:11.529Z,31.40
2023-06-17T10:23:41.625Z,29.70
2023-06-17T10:26:11.789Z,29.30
2023-06-17T10:28:55.695Z,25.10
2023-06-17T10:31:27.386Z,24.50
2023-06-17T10:33:56.743Z,24.00
2023-06-17T10:36:25.204Z,39.00
2023-06-17T10:39:24.970Z,15.10
2023-06-17T10:41:56.792Z,11.40
2023-06-17T10:44:36.712Z,9.70
2023-06-17T10:47:15.938Z,6.40
2023-06-17T10:49:43.697Z,4.20
2023-06-17T10:52:15.014Z,1.00
2023-06-17T10:54:46.898Z,1.00
2023-06-17T10:57:14.399Z,1.00
2023-06-17T10:59:41.844Z,1.00
2023-06-17T11:02:09.740Z,1.00
2023-06-17T11:04:42.210Z,1.00
2023-06-17T11:07:10.264Z,1.00
2023-06-17T11:09:38.792Z,1.00
2023-06-17T11:12:09.017Z,1.00
2023-06-17T11:14:40.296Z,1.00
2023-06-17T11:17:10.295Z,1.00
2023-06-17T11:19:37.928Z,1.00
2023-06-17T11:22:05.732Z,1.00
2023-06-17T11:24:34.262Z,1.00
2023-06-17T11:27:02.868Z,1.00
2023-06-17T11:29:31.159Z,1.00
2023-06-17T11:32:03.061Z,1.00
2023-06-17T11:34:33.229Z,1.00
2023-06-17T11:37:03.101Z,1.00
2023-06-17T11:39:32.204Z,1.00
2023-06-17T11:42:03.028Z,1.00
2023-06-17T11:44:32.874Z,1.00
2023-06-17T11:47:09.896Z,1.00
2023-06-17T11:49:42.332Z,1.00
2023-06-17T11:52:10.927Z,1.00
2023-06-17T11:54:53.368Z,1.00
2023-06-17T11:57:26.204Z,1.00
2023-06-17T12:00:06.272Z,1.00
2023-06-17T12:02:37.540Z,1.00
2023-06-17T12:05:05.864Z,1.00
2023-06-17T12:07:42.401Z,1.00
2023-06-17T12:10:13.187Z,1.00
2023-06-17T12:12:42.059Z,1.00
2023-06-17T12:15:16.900Z,1.00
2023-06-17T12:17:48.383Z,1.00
2023-06-17T12:20:22.752Z,1.00
2023-06-17T12:22:52.208Z,1.00
2023-06-17T12:25:20.298Z,1.00
2023-06-17T12:27:48.320Z,1.00
2023-06-17T12:30:16.004Z,1.00
2023-06-17T12:32:44.407Z,1.00
2023-06-17T12:35:12.992Z,1.00
2023-06-17T12:37:42.545Z,1.00
2023-06-17T12:40:11.098Z,1.00
2023-06-17T12:42:39.243Z,1.00
2023-06-17T12:45:08.276Z,1.00
2023-06-17T12:47:37.919Z,1.00
2023-06-17T12:50:06.808Z,1.00
2023-06-17T12:52:35.441Z,1.00
2023-06-17T12:55:05.943Z,1.00
2023-06-17T12:57:34.095Z,1.00
2023-06-17T13:00:07.415Z,1.00
2023-06-17T13:02:36.949Z,1.00
2023-06-17T13:05:05.024Z,1.00
2023-06-17T13:07:32.648Z,1.00
2023-06-17T13:10:00.395Z,1.00
2023-06-17T13:12:28.242Z,1.00
2023-06-17T13:14:56.709Z,1.00
2023-06-17T13:17:24.324Z,1.00
2023-06-17T13:19:51.791Z,1.00
2023-06-17T13:22:20.463Z,1.00
2023-06-17T13:24:47.853Z,1.00
2023-06-17T13:27:19.746Z,1.00
2023-06-17T13:29:47.502Z,1.00
2023-06-17T13:32:16.531Z,1.00
2023-06-17T13:34:45.939Z,1.00
2023-06-17T13:37:13.384Z,1.00
2023-06-17T13:39:41.546Z,1.00
2023-06-17T13:42:09.050Z,1.00
2023-06-17T13:44:36.612Z,1.00
2023-06-17T13:47:05.063Z,1.00
2023-06-17T13:49:33.433Z,1.00
2023-06-17T13:52:04.834Z,1.00
2023-06-17T13:54:32.343Z,1.00
2023-06-17T13:56:59.847Z,1.00
2023-06-17T13:59:27.905Z,1.00
2023-06-17T14:01:55.393Z,1.00
2023-06-17T14:04:23.044Z,1.00
2023-06-17T14:06:50.576Z,1.00
2023-06-17T14:09:18.028Z,1.00
2023-06-17T14:11:45.471Z,1.00
2023-06-17T14:14:12.859Z,1.00
2023-06-17T14:16:40.584Z,1.00
2023-06-17T14:19:08.003Z,1.00
2023-06-17T14:21:37.124Z,1.00
2023-06-17T14:24:09.696Z,1.00
2023-06-17T14:26:39.379Z,1.00
2023-06-17T14:29:10.791Z,1.00
2023-06-17T14:31:38.259Z,1.00
2023-06-17T14:34:05.662Z,1.00
2023-06-17T14:36:33.079Z,1.00
2023-06-17T14:39:01.751Z,1.00
2023-06-17T14:41:31.238Z,1.00
2023-06-17T14:44:00.323Z,1.00
2023-06-17T14:46:27.823Z,1.00
2023-06-17T14:48:55.389Z,1.00
2023-06-17T14:51:22.870Z,1.00
2023-06-17T14:53:50.217Z,1.00
2023-06-17T14:56:31.584Z,1.00
2023-06-17T14:59:01.318Z,1.00
2023-06-17T15:01:30.354Z,1.00
2023-06-17T15:03:58.225Z,1.00
2023-06-17T15:06:25.806Z,1.00
2023-06-17T15:09:25.710Z,1.00
2023-06-17T15:12:03.937Z,1.00
2023-06-17T15:14:38.175Z,1.00
2023-06-17T15:17:07.724Z,1.00
2023-06-17T15:19:37.261Z,1.00
2023-06-17T15:22:04.990Z,1.00
2023-06-17T15:24:32.569Z,1.00
2023-06-17T15:27:00.621Z,1.00
2023-06-17T15:29:28.012Z,1.00
2023-06-17T15:31:55.623Z,1.00
2023-06-17T15:34:23.048Z,1.00
2023-06-17T15:36:52.841Z,1.00
2023-06-17T15:39:22.968Z,1.00
2023-06-17T15:41:53.105Z,1.00
2023-06-17T15:44:22.100Z,1.00
2023-06-17T15:46:50.675Z,1.00
2023-06-17T15:49:18.967Z,1.00
2023-06-17T15:51:46.436Z,1.00
2023-06-17T15:54:14.271Z,1.00
2023-06-17T15:56:47.082Z,1.00
2023-06-17T15:59:14.834Z,1.00
2023-06-17T16:01:42.408Z,1.00
2023-06-17T16:04:33.233Z,1.00
2023-06-17T16:07:02.530Z,1.00
2023-06-17T16:09:32.474Z,1.00
2023-06-17T16:12:01.151Z,1.00
2023-06-17T16:14:30.023Z,1.00
2023-06-17T16:16:57.954Z,1.00
2023-06-17T16:19:26.747Z,1.00
2023-06-17T16:21:55.337Z,1.00
2023-06-17T16:24:23.406Z,1.00
2023-06-17T16:26:50.951Z,1.00
2023-06-17T16:29:18.529Z,1.00
2023-06-17T16:31:46.072Z,1.00
2023-06-17T16:34:14.021Z,1.00
2023-06-17T16:36:42.090Z,1.00
2023-06-17T16:39:10.880Z,1.00
2023-06-17T16:41:40.845Z,1.00
2023-06-17T16:44:09.099Z,1.00
2023-06-17T16:46:37.035Z,1.00
2023-06-17T16:49:04.637Z,1.00
2023-06-17T16:51:33.062Z,1.00
2023-06-17T16:54:03.732Z,1.00
2023-06-17T16:56:33.040Z,1.00
2023-06-17T16:59:02.035Z,1.00
2023-06-17T17:01:30.307Z,1.00
2023-06-17T17:04:00.079Z,1.00
2023-06-17T17:06:27.704Z,1.00
2023-06-17T17:08:55.266Z,1.00
2023-06-17T17:11:22.741Z,1.00
2023-06-17T17:13:50.411Z,1.00
2023-06-17T17:16:18.636Z,1.00
2023-06-17T17:18:46.110Z,1.00
2023-06-17T17:21:13.709Z,1.00
2023-06-17T17:23:42.024Z,1.00
2023-06-17T17:26:13.041Z,1.00
2023-06-17T17:28:41.530Z,1.00
2023-06-17T17:31:09.321Z,1.00
2023-06-17T17:33:37.454Z,1.00
2023-06-17T17:36:05.246Z,1.00
2023-06-17T17:38:32.682Z,1.00
2023-06-17T17:41:02.024Z,1.00
2023-06-17T17:43:30.961Z,1.00
2023-06-17T17:45:58.948Z,1.00
2023-06-17T17:48:26.480Z,1.00
2023-06-17T17:50:54.203Z,1.00
2023-06-17T17:53:21.939Z,1.00
2023-06-17T17:55:49.441Z,1.00
2023-06-17T17:58:17.792Z,1.00
2023-06-17T18:00:45.303Z,1.00
2023-06-17T18:03:13.194Z,1.00
2023-06-17T18:05:40.819Z,1.00
2023-06-17T18:08:08.572Z,1.00
2023-06-17T18:10:36.052Z,1.00
2023-06-17T18:13:03.532Z,1.00
2023-06-17T18:15:31.232Z,1.00
2023-06-17T18:17:58.928Z,1.00
2023-06-17T18:20:26.832Z,1.00
2023-06-17T18:22:54.200Z,1.00
2023-06-17T18:25:21.654Z,1.00
2023-06-17T18:27:49.065Z,1.00
2023-06-17T18:30:16.520Z,1.00
2023-06-17T18:32:43.924Z,1.00
2023-06-17T18:35:11.434Z,1.00
2023-06-17T18:37:38.932Z,1.00
2023-06-17T18:40:07.033Z,1.00
2023-06-17T18:42:34.397Z,1.00
2023-06-17T18:45:01.874Z,1.00
2023-06-17T18:47:30.704Z,1.00
2023-06-17T18:50:00.056Z,1.00
2023-06-17T18:52:27.741Z,1.00
2023-06-17T18:54:55.213Z,1.00
2023-06-17T18:57:22.705Z,1.00
2023-06-17T18:59:50.130Z,1.00
2023-06-17T19:02:18.958Z,1.00
2023-06-17T19:04:46.503Z,1.00
2023-06-17T19:07:14.612Z,1.00
2023-06-17T19:09:42.102Z,1.00
2023-06-17T19:12:09.801Z,1.00
2023-06-17T19:14:37.298Z,1.00
2023-06-17T19:17:05.059Z,1.00
2023-06-17T19:19:32.624Z,1.00
2023-06-17T19:21:59.969Z,1.00
2023-06-17T19:24:27.450Z,1.00
2023-06-17T19:26:55.148Z,1.00
2023-06-17T19:29:22.652Z,1.00
2023-06-17T19:31:50.009Z,1.00
2023-06-17T19:34:17.567Z,1.00
2023-06-17T19:36:44.972Z,1.00
2023-06-17T19:39:12.380Z,1.00
2023-06-17T19:41:40.686Z,1.00
2023-06-17T19:44:09.431Z,1.00
2023-06-17T19:46:37.141Z,1.00
2023-06-17T19:49:04.718Z,1.00
2023-06-17T19:51:32.196Z,1.00
2023-06-17T19:53:59.665Z,1.00
2023-06-17T19:56:27.751Z,1.00
2023-06-17T19:58:55.253Z,1.00
2023-06-17T20:01:24.337Z,1.00
2023-06-17T20:03:51.847Z,1.00
2023-06-17T20:06:19.327Z,1.00
2023-06-17T20:08:46.852Z,1.00
2023-06-17T20:11:14.228Z,1.00
2023-06-17T20:13:41.670Z,1.00
2023-06-17T20:16:09.161Z,4.80
2023-06-17T20:18:36.563Z,9.70
2023-06-17T20:21:04.057Z,13.00
2023-06-17T20:23:31.480Z,16.20
2023-06-17T20:25:58.916Z,17.30
2023-06-17T20:28:26.336Z,21.30
2023-06-17T20:30:53.779Z,27.70
2023-06-17T20:33:21.271Z,37.40
2023-06-17T20:35:49.538Z,45.00
2023-06-17T20:38:16.970Z,58.00
2023-06-17T20:40:44.406Z,94.70
2023-06-17T20:43:11.875Z,90.80
2023-06-17T20:45:39.391Z,96.60
2023-06-17T20:48:07.746Z,99.90
2023-06-17T20:50:35.381Z,99.90
2023-06-17T20:53:02.856Z,99.90
2023-06-17T20:55:31.662Z,99.90
2023-06-17T20:57:59.730Z,99.90
2023-06-17T21:00:27.417Z,99.90
2023-06-17T21:02:55.008Z,99.90
2023-06-17T21:05:22.669Z,99.90
2023-06-17T21:07:50.133Z,99.90
2023-06-17T21:10:17.824Z,99.90
2023-06-17T21:12:45.311Z,99.90
2023-06-17T21:15:12.804Z,99.90
2023-06-17T21:17:40.539Z,99.90
2023-06-17T21:20:09.906Z,99.90
2023-06-17T21:22:37.817Z,99.90
2023-06-17T21:25:06.003Z,99.90
2023-06-17T21:27:33.461Z,99.90
2023-06-17T21:30:01.176Z,99.90
2023-06-17T21:32:28.680Z,99.90
2023-06-17T21:34:56.299Z,99.90
2023-06-17T21:37:26.319Z,99.90
2023-06-17T21:39:54.645Z,99.90
2023-06-17T21:42:22.282Z,99.90
2023-06-17T21:44:49.729Z,99.90
2023-06-17T21:47:17.169Z,99.90
2023-06-17T21:49:44.578Z,99.90
2023-06-17T21:52:11.949Z,99.90
2023-06-17T21:54:39.414Z,99.90
2023-06-17T21:57:07.084Z,99.90
2023-06-17T21:59:34.523Z,99.90
2023-06-17T22:02:02.112Z,1.00
2023-06-17T22:04:29.658Z,1.00
2023-06-17T22:06:57.191Z,1.00
2023-06-17T22:09:24.563Z,1.00
2023-06-17T22:11:53.344Z,1.00
2023-06-17T22:14:20.795Z,1.00
2023-06-17T22:16:48.269Z,1.00
2023-06-17T22:19:15.675Z,1.00
2023-06-17T22:21:43.389Z,1.00
2023-06-17T22:24:12.161Z,1.00
2023-06-17T22:26:39.764Z,1.00
2023-06-17T22:29:08.181Z,1.00
2023-06-17T22:31:35.722Z,1.00
2023-06-17T22:34:03.204Z,1.00
2023-06-17T22:36:30.725Z,1.00
2023-06-17T22:38:59.422Z,1.00
2023-06-17T22:41:26.898Z,1.00
2023-06-17T22:43:54.291Z,1.00
2023-06-17T22:46:21.954Z,1.00
2023-06-17T22:48:49.397Z,1.00
2023-06-17T22:51:17.465Z,1.00
2023-06-17T22:53:45.714Z,1.00
2023-06-17T22:56:13.132Z,1.00
2023-06-17T22:58:40.720Z,1.00
2023-06-17T23:01:08.268Z,1.00
2023-06-17T23:03:36.002Z,1.00
2023-06-17T23:06:03.681Z,1.00
2023-06-17T23:08:31.070Z,1.00
2023-06-17T23:10:58.557Z,1.00
2023-06-17T23:13:25.944Z,1.00
2023-06-17T23:15:53.347Z,1.00
2023-06-17T23:18:20.730Z,1.00
2023-06-17T23:20:48.254Z,1.00
2023-06-17T23:23:17.979Z,1.00
2023-06-17T23:25:45.657Z,1.00
2023-06-17T23:28:13.091Z,1.00
2023-06-17T23:30:40.555Z,1.00
2023-06-17T23:33:11.792Z,1.00
2023-06-17T23:35:39.277Z,1.00
2023-06-17T23:38:06.693Z,1.00
2023-06-17T23:40:34.193Z,1.00
2023-06-17T23:43:01.602Z,1.00
2023-06-17T23:45:29.057Z,1.00
2023-06-17T23:47:56.594Z,1.00
2023-06-17T23:50:24.302Z,1.00
2023-06-17T23:52:52.031Z,1.00
2023-06-17T23:55:19.409Z,1.00
2023-06-17T23:57:46.809Z,1.00
